sensor_id;sensor_type;location;lat;lon;timestamp;temperature;humidity
7155;DHT22;3619;53.784;10.440;2023-07-31T00:01:27;14.20;99.90
7155;DHT22;3619;53.784;10.440;2023-07-31T00:03:56;14.10;99.90
7155;DHT22;3619;53.784;10.440;2023-07-31T00:06:22;14.10;99.90
7155;DHT22;3619;53.784;10.440;2023-07-31T00:08:49;14.20;99.90
7155;DHT22;3619;53.784;10.440;2023-07-31T00:11:18;14.10;99.90
7155;DHT22;3619;53.784;10.440;2023-07-31T00:13:44;14.10;99.90
7155;DHT22;3619;53.784;10.440;2023-07-31T00:16:14;14.20;99.90
7155;DHT22;3619;53.784;10.440;2023-07-31T00:18:41;14.20;99.90
7155;DHT22;3619;53.784;10.440;2023-07-31T00:21:09;14.10;99.90
7155;DHT22;3619;53.784;10.440;2023-07-31T00:23:38;14.10;99.90
7155;DHT22;3619;53.784;10.440;2023-07-31T00:26:04;14.10;99.90
7155;DHT22;3619;53.784;10.440;2023-07-31T00:28:31;14.20;99.90
7155;DHT22;3619;53.784;10.440;2023-07-31T00:30:58;14.20;99.90
7155;DHT22;3619;53.784;10.440;2023-07-31T00:33:24;14.20;99.90
7155;DHT22;3619;53.784;10.440;2023-07-31T00:35:51;14.20;99.90
7155;DHT22;3619;53.784;10.440;2023-07-31T00:38:20;14.20;99.90
7155;DHT22;3619;53.784;10.440;2023-07-31T00:40:46;14.20;99.90
7155;DHT22;3619;53.784;10.440;2023-07-31T00:43:13;14.20;99.90
7155;DHT22;3619;53.784;10.440;2023-07-31T00:45:40;14.20;99.90
7155;DHT22;3619;53.784;10.440;2023-07-31T00:48:07;14.20;99.90
7155;DHT22;3619;53.784;10.440;2023-07-31T00:50:35;14.20;99.90
7155;DHT22;3619;53.784;10.440;2023-07-31T00:53:03;14.20;99.90
7155;DHT22;3619;53.784;10.440;2023-07-31T00:55:31;14.20;99.90
7155;DHT22;3619;53.784;10.440;2023-07-31T00:57:58;14.30;99.90
7155;DHT22;3619;53.784;10.440;2023-07-31T01:00:25;14.20;99.90
7155;DHT22;3619;53.784;10.440;2023-07-31T01:02:52;14.30;99.90
7155;DHT22;3619;53.784;10.440;2023-07-31T01:05:25;14.30;99.90
7155;DHT22;3619;53.784;10.440;2023-07-31T01:08:00;14.20;99.90
7155;DHT22;3619;53.784;10.440;2023-07-31T01:10:37;14.20;99.90
7155;DHT22;3619;53.784;10.440;2023-07-31T01:13:08;14.30;99.90
7155;DHT22;3619;53.784;10.440;2023-07-31T01:15:35;14.30;99.90
7155;DHT22;3619;53.784;10.440;2023-07-31T01:18:02;14.30;99.90
7155;DHT22;3619;53.784;10.440;2023-07-31T01:20:30;14.20;99.90
7155;DHT22;3619;53.784;10.440;2023-07-31T01:23:15;14.30;99.90
7155;DHT22;3619;53.784;10.440;2023-07-31T01:26:04;14.30;99.90
7155;DHT22;3619;53.784;10.440;2023-07-31T01:28:40;14.30;99.90
7155;DHT22;3619;53.784;10.440;2023-07-31T01:31:16;14.30;99.90
7155;DHT22;3619;53.784;10.440;2023-07-31T01:33:43;14.30;99.90
7155;DHT22;3619;53.784;10.440;2023-07-31T01:36:10;14.20;99.90
7155;DHT22;3619;53.784;10.440;2023-07-31T01:38:42;14.20;99.90
7155;DHT22;3619;53.784;10.440;2023-07-31T01:41:10;14.20;99.90
7155;DHT22;3619;53.784;10.440;2023-07-31T01:43:37;14.20;99.90
7155;DHT22;3619;53.784;10.440;2023-07-31T01:46:04;14.20;99.90
7155;DHT22;3619;53.784;10.440;2023-07-31T01:48:30;14.10;99.90
7155;DHT22;3619;53.784;10.440;2023-07-31T01:51:01;14.20;99.90
7155;DHT22;3619;53.784;10.440;2023-07-31T01:53:28;14.10;99.90
7155;DHT22;3619;53.784;10.440;2023-07-31T01:55:55;14.10;99.90
7155;DHT22;3619;53.784;10.440;2023-07-31T01:58:23;14.10;99.90
7155;DHT22;3619;53.784;10.440;2023-07-31T02:00:50;14.10;99.90
7155;DHT22;3619;53.784;10.440;2023-07-31T02:03:18;14.00;99.90
7155;DHT22;3619;53.784;10.440;2023-07-31T02:05:47;14.00;99.90
7155;DHT22;3619;53.784;10.440;2023-07-31T02:08:15;14.00;99.90
7155;DHT22;3619;53.784;10.440;2023-07-31T02:10:42;14.10;99.90
7155;DHT22;3619;53.784;10.440;2023-07-31T02:13:09;14.10;99.90
7155;DHT22;3619;53.784;10.440;2023-07-31T02:15:37;14.00;99.90
7155;DHT22;3619;53.784;10.440;2023-07-31T02:18:05;14.00;99.90
7155;DHT22;3619;53.784;10.440;2023-07-31T02:20:33;14.10;99.90
7155;DHT22;3619;53.784;10.440;2023-07-31T02:23:00;14.10;99.90
7155;DHT22;3619;53.784;10.440;2023-07-31T02:25:27;14.10;99.90
7155;DHT22;3619;53.784;10.440;2023-07-31T02:27:56;14.10;99.90
7155;DHT22;3619;53.784;10.440;2023-07-31T02:30:23;14.10;99.90
7155;DHT22;3619;53.784;10.440;2023-07-31T02:32:52;14.10;99.90
7155;DHT22;3619;53.784;10.440;2023-07-31T02:35:19;14.10;99.90
7155;DHT22;3619;53.784;10.440;2023-07-31T02:37:46;14.10;99.90
7155;DHT22;3619;53.784;10.440;2023-07-31T02:40:14;14.10;99.90
7155;DHT22;3619;53.784;10.440;2023-07-31T02:42:41;14.10;99.90
7155;DHT22;3619;53.784;10.440;2023-07-31T02:45:08;14.20;99.90
7155;DHT22;3619;53.784;10.440;2023-07-31T02:47:35;14.20;99.90
7155;DHT22;3619;53.784;10.440;2023-07-31T02:50:03;14.20;99.90
7155;DHT22;3619;53.784;10.440;2023-07-31T02:52:32;14.20;99.90
7155;DHT22;3619;53.784;10.440;2023-07-31T02:54:59;14.30;99.90
7155;DHT22;3619;53.784;10.440;2023-07-31T02:57:26;14.30;99.90
7155;DHT22;3619;53.784;10.440;2023-07-31T02:59:55;14.30;99.90
7155;DHT22;3619;53.784;10.440;2023-07-31T03:02:21;14.30;99.90
7155;DHT22;3619;53.784;10.440;2023-07-31T03:04:48;14.30;99.90
7155;DHT22;3619;53.784;10.440;2023-07-31T03:07:16;14.30;99.90
7155;DHT22;3619;53.784;10.440;2023-07-31T03:09:44;14.30;99.90
7155;DHT22;3619;53.784;10.440;2023-07-31T03:12:10;14.30;99.90
7155;DHT22;3619;53.784;10.440;2023-07-31T03:14:37;14.40;99.90
7155;DHT22;3619;53.784;10.440;2023-07-31T03:17:04;14.30;99.90
7155;DHT22;3619;53.784;10.440;2023-07-31T03:19:31;14.30;99.90
7155;DHT22;3619;53.784;10.440;2023-07-31T03:21:59;14.30;99.90
7155;DHT22;3619;53.784;10.440;2023-07-31T03:24:28;14.30;99.90
7155;DHT22;3619;53.784;10.440;2023-07-31T03:26:55;14.30;99.90
7155;DHT22;3619;53.784;10.440;2023-07-31T03:29:22;14.30;99.90
7155;DHT22;3619;53.784;10.440;2023-07-31T03:31:49;14.30;99.90
7155;DHT22;3619;53.784;10.440;2023-07-31T03:34:16;14.30;99.90
7155;DHT22;3619;53.784;10.440;2023-07-31T03:36:43;14.40;99.90
7155;DHT22;3619;53.784;10.440;2023-07-31T03:39:11;14.40;99.90
7155;DHT22;3619;53.784;10.440;2023-07-31T03:41:40;14.40;99.90
7155;DHT22;3619;53.784;10.440;2023-07-31T03:44:05;14.40;99.90
7155;DHT22;3619;53.784;10.440;2023-07-31T03:46:33;14.40;99.90
7155;DHT22;3619;53.784;10.440;2023-07-31T03:49:01;14.40;99.90
7155;DHT22;3619;53.784;10.440;2023-07-31T03:51:28;14.40;99.90
7155;DHT22;3619;53.784;10.440;2023-07-31T03:53:55;14.40;99.90
7155;DHT22;3619;53.784;10.440;2023-07-31T03:56:22;14.40;99.90
7155;DHT22;3619;53.784;10.440;2023-07-31T03:58:51;14.40;99.90
7155;DHT22;3619;53.784;10.440;2023-07-31T04:01:19;14.40;99.90
7155;DHT22;3619;53.784;10.440;2023-07-31T04:03:47;14.40;99.90
7155;DHT22;3619;53.784;10.440;2023-07-31T04:06:14;14.40;99.90
7155;DHT22;3619;53.784;10.440;2023-07-31T04:08:43;14.40;99.90
7155;DHT22;3619;53.784;10.440;2023-07-31T04:11:10;14.40;99.90
7155;DHT22;3619;53.784;10.440;2023-07-31T04:13:37;14.40;99.90
7155;DHT22;3619;53.784;10.440;2023-07-31T04:16:05;14.40;99.90
7155;DHT22;3619;53.784;10.440;2023-07-31T04:18:34;14.40;99.90
7155;DHT22;3619;53.784;10.440;2023-07-31T04:21:00;14.50;99.90
7155;DHT22;3619;53.784;10.440;2023-07-31T04:23:28;14.50;99.90
7155;DHT22;3619;53.784;10.440;2023-07-31T04:25:55;14.50;99.90
7155;DHT22;3619;53.784;10.440;2023-07-31T04:28:22;14.50;99.90
7155;DHT22;3619;53.784;10.440;2023-07-31T04:30:50;14.50;99.90
7155;DHT22;3619;53.784;10.440;2023-07-31T04:33:18;14.60;99.90
7155;DHT22;3619;53.784;10.440;2023-07-31T04:35:49;14.60;99.90
7155;DHT22;3619;53.784;10.440;2023-07-31T04:38:18;14.60;99.90
7155;DHT22;3619;53.784;10.440;2023-07-31T04:40:44;14.70;99.90
7155;DHT22;3619;53.784;10.440;2023-07-31T04:43:11;14.70;99.90
7155;DHT22;3619;53.784;10.440;2023-07-31T04:45:44;14.70;99.90
7155;DHT22;3619;53.784;10.440;2023-07-31T04:48:11;14.70;99.90
7155;DHT22;3619;53.784;10.440;2023-07-31T04:50:39;14.80;99.90
7155;DHT22;3619;53.784;10.440;2023-07-31T04:53:06;14.80;99.90
7155;DHT22;3619;53.784;10.440;2023-07-31T04:55:33;14.80;99.90
7155;DHT22;3619;53.784;10.440;2023-07-31T04:58:00;14.90;99.90
7155;DHT22;3619;53.784;10.440;2023-07-31T05:00:27;14.90;99.90
7155;DHT22;3619;53.784;10.440;2023-07-31T05:02:53;14.90;99.90
7155;DHT22;3619;53.784;10.440;2023-07-31T05:05:20;14.90;99.90
7155;DHT22;3619;53.784;10.440;2023-07-31T05:07:48;15.00;99.90
7155;DHT22;3619;53.784;10.440;2023-07-31T05:10:15;14.90;99.90
7155;DHT22;3619;53.784;10.440;2023-07-31T05:12:42;15.00;99.90
7155;DHT22;3619;53.784;10.440;2023-07-31T05:15:11;15.00;99.90
7155;DHT22;3619;53.784;10.440;2023-07-31T05:17:38;15.00;99.90
7155;DHT22;3619;53.784;10.440;2023-07-31T05:20:06;15.00;99.90
7155;DHT22;3619;53.784;10.440;2023-07-31T05:22:33;15.00;99.90
7155;DHT22;3619;53.784;10.440;2023-07-31T05:25:01;15.00;99.90
7155;DHT22;3619;53.784;10.440;2023-07-31T05:27:32;15.00;99.90
7155;DHT22;3619;53.784;10.440;2023-07-31T05:29:58;15.10;99.90
7155;DHT22;3619;53.784;10.440;2023-07-31T05:32:25;15.10;99.90
7155;DHT22;3619;53.784;10.440;2023-07-31T05:34:52;15.10;99.90
7155;DHT22;3619;53.784;10.440;2023-07-31T05:37:23;15.10;99.90
7155;DHT22;3619;53.784;10.440;2023-07-31T05:39:50;15.10;99.90
7155;DHT22;3619;53.784;10.440;2023-07-31T05:42:21;15.10;99.90
7155;DHT22;3619;53.784;10.440;2023-07-31T05:44:48;15.20;99.90
7155;DHT22;3619;53.784;10.440;2023-07-31T05:47:15;15.20;99.90
7155;DHT22;3619;53.784;10.440;2023-07-31T05:49:42;15.20;99.90
7155;DHT22;3619;53.784;10.440;2023-07-31T05:52:09;15.20;99.90
7155;DHT22;3619;53.784;10.440;2023-07-31T05:54:36;15.30;99.90
7155;DHT22;3619;53.784;10.440;2023-07-31T05:57:04;15.30;99.90
7155;DHT22;3619;53.784;10.440;2023-07-31T05:59:34;15.30;99.90
7155;DHT22;3619;53.784;10.440;2023-07-31T06:02:01;15.30;99.90
7155;DHT22;3619;53.784;10.440;2023-07-31T06:04:28;15.40;99.90
7155;DHT22;3619;53.784;10.440;2023-07-31T06:06:55;15.40;99.90
7155;DHT22;3619;53.784;10.440;2023-07-31T06:09:25;15.30;99.90
7155;DHT22;3619;53.784;10.440;2023-07-31T06:11:52;15.30;99.90
7155;DHT22;3619;53.784;10.440;2023-07-31T06:14:19;15.40;99.90
7155;DHT22;3619;53.784;10.440;2023-07-31T06:16:50;15.40;99.90
7155;DHT22;3619;53.784;10.440;2023-07-31T06:19:17;15.40;99.90
7155;DHT22;3619;53.784;10.440;2023-07-31T06:21:45;15.40;99.90
7155;DHT22;3619;53.784;10.440;2023-07-31T06:24:11;15.40;99.90
7155;DHT22;3619;53.784;10.440;2023-07-31T06:26:39;15.40;99.90
7155;DHT22;3619;53.784;10.440;2023-07-31T06:29:05;15.40;99.90
7155;DHT22;3619;53.784;10.440;2023-07-31T06:31:32;15.50;99.90
7155;DHT22;3619;53.784;10.440;2023-07-31T06:34:35;15.50;99.90
7155;DHT22;3619;53.784;10.440;2023-07-31T06:36:58;15.50;99.90
7155;DHT22;3619;53.784;10.440;2023-07-31T06:39:44;15.50;99.90
7155;DHT22;3619;53.784;10.440;2023-07-31T06:42:47;15.50;99.90
7155;DHT22;3619;53.784;10.440;2023-07-31T06:45:24;15.50;99.90
7155;DHT22;3619;53.784;10.440;2023-07-31T06:51:06;15.60;99.90
7155;DHT22;3619;53.784;10.440;2023-07-31T06:53:41;15.60;99.90
7155;DHT22;3619;53.784;10.440;2023-07-31T06:56:18;15.50;99.90
7155;DHT22;3619;53.784;10.440;2023-07-31T06:58:48;15.60;99.90
7155;DHT22;3619;53.784;10.440;2023-07-31T07:01:15;15.60;99.90
7155;DHT22;3619;53.784;10.440;2023-07-31T07:03:42;15.50;99.90
7155;DHT22;3619;53.784;10.440;2023-07-31T07:06:10;15.60;99.90
7155;DHT22;3619;53.784;10.440;2023-07-31T07:08:37;15.60;99.90
7155;DHT22;3619;53.784;10.440;2023-07-31T07:11:06;15.60;99.90
7155;DHT22;3619;53.784;10.440;2023-07-31T07:13:33;15.70;99.90
7155;DHT22;3619;53.784;10.440;2023-07-31T07:15:59;15.70;99.90
7155;DHT22;3619;53.784;10.440;2023-07-31T07:18:26;15.70;99.90
7155;DHT22;3619;53.784;10.440;2023-07-31T07:20:54;15.70;99.90
7155;DHT22;3619;53.784;10.440;2023-07-31T07:23:24;15.70;99.90
7155;DHT22;3619;53.784;10.440;2023-07-31T07:25:52;15.70;99.90
7155;DHT22;3619;53.784;10.440;2023-07-31T07:28:21;15.70;99.90
7155;DHT22;3619;53.784;10.440;2023-07-31T07:30:51;15.70;99.90
7155;DHT22;3619;53.784;10.440;2023-07-31T07:33:18;15.60;99.90
7155;DHT22;3619;53.784;10.440;2023-07-31T07:35:45;15.70;99.90
7155;DHT22;3619;53.784;10.440;2023-07-31T07:38:13;15.70;99.90
7155;DHT22;3619;53.784;10.440;2023-07-31T07:40:42;15.70;99.90
7155;DHT22;3619;53.784;10.440;2023-07-31T07:43:09;15.80;99.90
7155;DHT22;3619;53.784;10.440;2023-07-31T07:45:35;15.80;99.90
7155;DHT22;3619;53.784;10.440;2023-07-31T07:48:03;15.80;99.90
7155;DHT22;3619;53.784;10.440;2023-07-31T07:50:29;15.80;99.90
7155;DHT22;3619;53.784;10.440;2023-07-31T07:52:56;15.80;99.90
7155;DHT22;3619;53.784;10.440;2023-07-31T07:55:23;15.90;99.90
7155;DHT22;3619;53.784;10.440;2023-07-31T07:57:51;15.90;99.90
7155;DHT22;3619;53.784;10.440;2023-07-31T08:00:18;15.90;99.90
7155;DHT22;3619;53.784;10.440;2023-07-31T08:02:45;15.80;99.90
7155;DHT22;3619;53.784;10.440;2023-07-31T08:05:12;15.80;99.90
7155;DHT22;3619;53.784;10.440;2023-07-31T08:07:43;15.80;99.90
7155;DHT22;3619;53.784;10.440;2023-07-31T08:10:10;15.80;99.90
7155;DHT22;3619;53.784;10.440;2023-07-31T08:12:41;15.80;99.90
7155;DHT22;3619;53.784;10.440;2023-07-31T08:15:10;15.80;99.90
7155;DHT22;3619;53.784;10.440;2023-07-31T08:17:36;15.80;99.90
7155;DHT22;3619;53.784;10.440;2023-07-31T08:20:04;15.90;99.90
7155;DHT22;3619;53.784;10.440;2023-07-31T08:22:31;15.80;99.90
7155;DHT22;3619;53.784;10.440;2023-07-31T08:24:58;15.80;99.90
7155;DHT22;3619;53.784;10.440;2023-07-31T08:27:25;15.70;99.90
7155;DHT22;3619;53.784;10.440;2023-07-31T08:29:52;15.70;99.90
7155;DHT22;3619;53.784;10.440;2023-07-31T08:32:26;15.70;99.90
7155;DHT22;3619;53.784;10.440;2023-07-31T08:34:53;15.70;99.90
7155;DHT22;3619;53.784;10.440;2023-07-31T08:37:19;15.70;99.90
7155;DHT22;3619;53.784;10.440;2023-07-31T08:39:47;15.80;99.90
7155;DHT22;3619;53.784;10.440;2023-07-31T08:42:14;15.80;99.90
7155;DHT22;3619;53.784;10.440;2023-07-31T08:44:41;15.80;99.90
7155;DHT22;3619;53.784;10.440;2023-07-31T08:47:10;15.80;99.90
7155;DHT22;3619;53.784;10.440;2023-07-31T08:49:40;15.70;99.90
7155;DHT22;3619;53.784;10.440;2023-07-31T08:52:08;15.70;99.90
7155;DHT22;3619;53.784;10.440;2023-07-31T08:54:34;15.80;99.90
7155;DHT22;3619;53.784;10.440;2023-07-31T08:57:01;15.90;99.90
7155;DHT22;3619;53.784;10.440;2023-07-31T08:59:29;15.90;99.90
7155;DHT22;3619;53.784;10.440;2023-07-31T09:02:00;16.00;99.90
7155;DHT22;3619;53.784;10.440;2023-07-31T09:04:30;16.10;99.90
7155;DHT22;3619;53.784;10.440;2023-07-31T09:07:00;16.10;99.90
7155;DHT22;3619;53.784;10.440;2023-07-31T09:09:28;16.30;99.90
7155;DHT22;3619;53.784;10.440;2023-07-31T09:11:56;16.30;99.90
7155;DHT22;3619;53.784;10.440;2023-07-31T09:14:25;16.40;99.90
7155;DHT22;3619;53.784;10.440;2023-07-31T09:16:53;16.40;99.90
7155;DHT22;3619;53.784;10.440;2023-07-31T09:19:27;16.50;99.90
7155;DHT22;3619;53.784;10.440;2023-07-31T09:21:54;16.60;99.90
7155;DHT22;3619;53.784;10.440;2023-07-31T09:24:29;16.50;99.90
7155;DHT22;3619;53.784;10.440;2023-07-31T09:26:58;16.50;99.90
7155;DHT22;3619;53.784;10.440;2023-07-31T09:29:26;16.60;99.90
7155;DHT22;3619;53.784;10.440;2023-07-31T09:31:53;16.70;99.90
7155;DHT22;3619;53.784;10.440;2023-07-31T09:34:29;16.80;99.90
7155;DHT22;3619;53.784;10.440;2023-07-31T09:37:00;16.80;99.90
7155;DHT22;3619;53.784;10.440;2023-07-31T09:39:29;16.80;99.90
7155;DHT22;3619;53.784;10.440;2023-07-31T09:41:57;16.80;99.90
7155;DHT22;3619;53.784;10.440;2023-07-31T09:44:37;16.80;99.90
7155;DHT22;3619;53.784;10.440;2023-07-31T09:47:08;16.90;99.90
7155;DHT22;3619;53.784;10.440;2023-07-31T09:49:50;16.90;99.90
7155;DHT22;3619;53.784;10.440;2023-07-31T09:52:17;17.00;99.90
7155;DHT22;3619;53.784;10.440;2023-07-31T09:54:47;17.20;99.90
7155;DHT22;3619;53.784;10.440;2023-07-31T09:57:17;17.10;99.90
7155;DHT22;3619;53.784;10.440;2023-07-31T09:59:47;17.20;99.90
7155;DHT22;3619;53.784;10.440;2023-07-31T10:02:17;17.20;99.90
7155;DHT22;3619;53.784;10.440;2023-07-31T10:04:45;17.30;99.90
7155;DHT22;3619;53.784;10.440;2023-07-31T10:07:14;17.40;99.90
7155;DHT22;3619;53.784;10.440;2023-07-31T10:09:46;17.30;99.90
7155;DHT22;3619;53.784;10.440;2023-07-31T10:12:18;17.30;99.90
7155;DHT22;3619;53.784;10.440;2023-07-31T10:14:45;17.50;99.90
7155;DHT22;3619;53.784;10.440;2023-07-31T10:17:13;17.40;99.90
7155;DHT22;3619;53.784;10.440;2023-07-31T10:19:41;17.40;99.90
7155;DHT22;3619;53.784;10.440;2023-07-31T10:22:08;17.50;99.90
7155;DHT22;3619;53.784;10.440;2023-07-31T10:24:35;17.60;99.90
7155;DHT22;3619;53.784;10.440;2023-07-31T10:27:07;17.60;99.90
7155;DHT22;3619;53.784;10.440;2023-07-31T10:29:39;17.50;99.90
7155;DHT22;3619;53.784;10.440;2023-07-31T10:32:07;17.40;99.90
7155;DHT22;3619;53.784;10.440;2023-07-31T10:34:39;17.20;99.90
7155;DHT22;3619;53.784;10.440;2023-07-31T10:37:28;17.20;99.90
7155;DHT22;3619;53.784;10.440;2023-07-31T10:39:57;17.20;99.90
7155;DHT22;3619;53.784;10.440;2023-07-31T10:42:33;17.30;99.90
7155;DHT22;3619;53.784;10.440;2023-07-31T10:45:12;17.30;99.90
7155;DHT22;3619;53.784;10.440;2023-07-31T10:47:43;17.30;99.90
7155;DHT22;3619;53.784;10.440;2023-07-31T10:50:16;17.30;99.90
7155;DHT22;3619;53.784;10.440;2023-07-31T10:52:46;17.30;99.90
7155;DHT22;3619;53.784;10.440;2023-07-31T10:55:16;17.20;99.90
7155;DHT22;3619;53.784;10.440;2023-07-31T10:57:44;17.20;99.90
7155;DHT22;3619;53.784;10.440;2023-07-31T11:00:31;17.00;99.90
7155;DHT22;3619;53.784;10.440;2023-07-31T11:02:59;16.80;99.90
7155;DHT22;3619;53.784;10.440;2023-07-31T11:05:48;16.70;99.90
7155;DHT22;3619;53.784;10.440;2023-07-31T11:08:17;16.70;99.90
7155;DHT22;3619;53.784;10.440;2023-07-31T11:10:45;16.70;99.90
7155;DHT22;3619;53.784;10.440;2023-07-31T11:13:12;16.50;99.90
7155;DHT22;3619;53.784;10.440;2023-07-31T11:15:41;16.50;99.90
7155;DHT22;3619;53.784;10.440;2023-07-31T11:18:08;16.50;99.90
7155;DHT22;3619;53.784;10.440;2023-07-31T11:20:38;16.50;99.90
7155;DHT22;3619;53.784;10.440;2023-07-31T11:23:07;16.50;99.90
7155;DHT22;3619;53.784;10.440;2023-07-31T11:25:35;16.50;99.90
7155;DHT22;3619;53.784;10.440;2023-07-31T11:28:05;16.50;99.90
7155;DHT22;3619;53.784;10.440;2023-07-31T11:30:33;16.40;99.90
7155;DHT22;3619;53.784;10.440;2023-07-31T11:33:03;16.40;99.90
7155;DHT22;3619;53.784;10.440;2023-07-31T11:35:31;16.30;99.90
7155;DHT22;3619;53.784;10.440;2023-07-31T11:37:59;16.30;99.90
7155;DHT22;3619;53.784;10.440;2023-07-31T11:40:26;16.30;99.90
7155;DHT22;3619;53.784;10.440;2023-07-31T11:42:55;16.20;99.90
7155;DHT22;3619;53.784;10.440;2023-07-31T11:45:25;16.20;99.90
7155;DHT22;3619;53.784;10.440;2023-07-31T11:47:54;16.20;99.90
7155;DHT22;3619;53.784;10.440;2023-07-31T11:50:22;16.10;99.90
7155;DHT22;3619;53.784;10.440;2023-07-31T11:52:53;16.10;99.90
7155;DHT22;3619;53.784;10.440;2023-07-31T11:55:21;16.00;99.90
7155;DHT22;3619;53.784;10.440;2023-07-31T11:57:49;16.00;99.90
7155;DHT22;3619;53.784;10.440;2023-07-31T12:00:17;15.90;99.90
7155;DHT22;3619;53.784;10.440;2023-07-31T12:02:44;15.90;99.90
7155;DHT22;3619;53.784;10.440;2023-07-31T12:05:12;16.00;99.90
7155;DHT22;3619;53.784;10.440;2023-07-31T12:07:49;16.10;99.90
7155;DHT22;3619;53.784;10.440;2023-07-31T12:10:27;16.10;99.90
7155;DHT22;3619;53.784;10.440;2023-07-31T12:13:11;16.20;99.90
7155;DHT22;3619;53.784;10.440;2023-07-31T12:15:59;16.30;99.90
7155;DHT22;3619;53.784;10.440;2023-07-31T12:18:30;16.50;99.90
7155;DHT22;3619;53.784;10.440;2023-07-31T12:20:59;16.60;99.90
7155;DHT22;3619;53.784;10.440;2023-07-31T12:23:29;16.70;99.90
7155;DHT22;3619;53.784;10.440;2023-07-31T12:26:03;16.60;99.90
7155;DHT22;3619;53.784;10.440;2023-07-31T12:28:35;16.60;99.90
7155;DHT22;3619;53.784;10.440;2023-07-31T12:31:02;16.50;99.90
7155;DHT22;3619;53.784;10.440;2023-07-31T12:33:31;16.40;99.90
7155;DHT22;3619;53.784;10.440;2023-07-31T12:36:01;16.20;99.90
7155;DHT22;3619;53.784;10.440;2023-07-31T12:38:29;16.20;99.90
7155;DHT22;3619;53.784;10.440;2023-07-31T12:40:59;16.10;99.90
7155;DHT22;3619;53.784;10.440;2023-07-31T12:43:26;15.90;99.90
7155;DHT22;3619;53.784;10.440;2023-07-31T12:45:54;15.90;99.90
7155;DHT22;3619;53.784;10.440;2023-07-31T12:48:21;15.90;99.90
7155;DHT22;3619;53.784;10.440;2023-07-31T12:50:48;15.80;99.90
7155;DHT22;3619;53.784;10.440;2023-07-31T12:53:15;15.90;99.90
7155;DHT22;3619;53.784;10.440;2023-07-31T12:55:43;15.80;99.90
7155;DHT22;3619;53.784;10.440;2023-07-31T12:58:10;15.70;99.90
7155;DHT22;3619;53.784;10.440;2023-07-31T13:00:37;15.80;99.90
7155;DHT22;3619;53.784;10.440;2023-07-31T13:03:04;15.90;99.90
7155;DHT22;3619;53.784;10.440;2023-07-31T13:05:31;16.10;99.90
7155;DHT22;3619;53.784;10.440;2023-07-31T13:07:58;16.10;99.90
7155;DHT22;3619;53.784;10.440;2023-07-31T13:10:25;16.00;99.90
7155;DHT22;3619;53.784;10.440;2023-07-31T13:12:55;16.20;99.90
7155;DHT22;3619;53.784;10.440;2023-07-31T13:15:22;16.10;99.90
7155;DHT22;3619;53.784;10.440;2023-07-31T13:17:49;16.00;99.90
7155;DHT22;3619;53.784;10.440;2023-07-31T13:20:25;15.80;99.90
7155;DHT22;3619;53.784;10.440;2023-07-31T13:22:52;15.90;99.90
7155;DHT22;3619;53.784;10.440;2023-07-31T13:25:18;16.10;99.90
7155;DHT22;3619;53.784;10.440;2023-07-31T13:27:45;16.10;99.90
7155;DHT22;3619;53.784;10.440;2023-07-31T13:30:17;16.10;99.90
7155;DHT22;3619;53.784;10.440;2023-07-31T13:32:44;16.10;99.90
7155;DHT22;3619;53.784;10.440;2023-07-31T13:35:11;16.00;99.90
7155;DHT22;3619;53.784;10.440;2023-07-31T13:37:38;16.00;99.90
7155;DHT22;3619;53.784;10.440;2023-07-31T13:40:05;16.00;99.90
7155;DHT22;3619;53.784;10.440;2023-07-31T13:42:32;16.10;99.90
7155;DHT22;3619;53.784;10.440;2023-07-31T13:44:59;16.00;99.90
7155;DHT22;3619;53.784;10.440;2023-07-31T13:47:27;16.20;99.90
7155;DHT22;3619;53.784;10.440;2023-07-31T13:49:54;16.00;99.90
7155;DHT22;3619;53.784;10.440;2023-07-31T13:52:23;15.80;99.90
7155;DHT22;3619;53.784;10.440;2023-07-31T13:54:49;15.80;99.90
7155;DHT22;3619;53.784;10.440;2023-07-31T13:57:16;15.90;99.90
7155;DHT22;3619;53.784;10.440;2023-07-31T13:59:43;15.90;99.90
7155;DHT22;3619;53.784;10.440;2023-07-31T14:02:11;15.90;99.90
7155;DHT22;3619;53.784;10.440;2023-07-31T14:04:40;15.90;99.90
7155;DHT22;3619;53.784;10.440;2023-07-31T14:07:07;16.00;99.90
7155;DHT22;3619;53.784;10.440;2023-07-31T14:09:34;16.20;99.90
7155;DHT22;3619;53.784;10.440;2023-07-31T14:12:01;16.00;99.90
7155;DHT22;3619;53.784;10.440;2023-07-31T14:14:27;15.80;99.90
7155;DHT22;3619;53.784;10.440;2023-07-31T14:16:54;15.70;99.90
7155;DHT22;3619;53.784;10.440;2023-07-31T14:19:21;15.80;99.90
7155;DHT22;3619;53.784;10.440;2023-07-31T14:21:51;15.70;99.90
7155;DHT22;3619;53.784;10.440;2023-07-31T14:24:20;15.80;99.90
7155;DHT22;3619;53.784;10.440;2023-07-31T14:26:54;15.80;99.90
7155;DHT22;3619;53.784;10.440;2023-07-31T14:29:21;15.90;99.90
7155;DHT22;3619;53.784;10.440;2023-07-31T14:31:49;15.80;99.90
7155;DHT22;3619;53.784;10.440;2023-07-31T14:34:17;15.90;99.90
7155;DHT22;3619;53.784;10.440;2023-07-31T14:36:45;15.80;99.90
7155;DHT22;3619;53.784;10.440;2023-07-31T14:39:16;15.60;99.90
7155;DHT22;3619;53.784;10.440;2023-07-31T14:41:42;15.50;99.90
7155;DHT22;3619;53.784;10.440;2023-07-31T14:44:09;15.50;99.90
7155;DHT22;3619;53.784;10.440;2023-07-31T14:46:41;15.50;99.90
7155;DHT22;3619;53.784;10.440;2023-07-31T14:49:08;15.50;99.90
7155;DHT22;3619;53.784;10.440;2023-07-31T14:51:35;15.50;99.90
7155;DHT22;3619;53.784;10.440;2023-07-31T14:54:03;15.50;99.90
7155;DHT22;3619;53.784;10.440;2023-07-31T14:56:34;15.50;99.90
7155;DHT22;3619;53.784;10.440;2023-07-31T14:59:22;15.50;99.90
7155;DHT22;3619;53.784;10.440;2023-07-31T15:01:49;15.60;99.90
7155;DHT22;3619;53.784;10.440;2023-07-31T15:04:16;15.50;99.90
7155;DHT22;3619;53.784;10.440;2023-07-31T15:06:48;15.50;99.90
7155;DHT22;3619;53.784;10.440;2023-07-31T15:09:15;15.40;99.90
7155;DHT22;3619;53.784;10.440;2023-07-31T15:11:44;15.40;99.90
7155;DHT22;3619;53.784;10.440;2023-07-31T15:14:12;15.30;99.90
7155;DHT22;3619;53.784;10.440;2023-07-31T15:16:39;15.20;99.90
7155;DHT22;3619;53.784;10.440;2023-07-31T15:19:06;15.20;99.90
7155;DHT22;3619;53.784;10.440;2023-07-31T15:21:33;15.30;99.90
7155;DHT22;3619;53.784;10.440;2023-07-31T15:23:59;15.40;99.90
7155;DHT22;3619;53.784;10.440;2023-07-31T15:26:26;15.40;99.90
7155;DHT22;3619;53.784;10.440;2023-07-31T15:29:05;15.40;99.90
7155;DHT22;3619;53.784;10.440;2023-07-31T15:31:36;15.40;99.90
7155;DHT22;3619;53.784;10.440;2023-07-31T15:34:10;15.50;99.90
7155;DHT22;3619;53.784;10.440;2023-07-31T15:36:37;15.40;99.90
7155;DHT22;3619;53.784;10.440;2023-07-31T15:39:04;15.40;99.90
7155;DHT22;3619;53.784;10.440;2023-07-31T15:41:31;15.30;99.90
7155;DHT22;3619;53.784;10.440;2023-07-31T15:43:59;15.40;99.90
7155;DHT22;3619;53.784;10.440;2023-07-31T15:46:27;15.50;99.90
7155;DHT22;3619;53.784;10.440;2023-07-31T15:48:55;15.50;99.90
7155;DHT22;3619;53.784;10.440;2023-07-31T15:51:23;15.50;99.90
7155;DHT22;3619;53.784;10.440;2023-07-31T15:53:52;15.40;99.90
7155;DHT22;3619;53.784;10.440;2023-07-31T15:56:19;15.40;99.90
7155;DHT22;3619;53.784;10.440;2023-07-31T15:58:46;15.40;99.90